首页
METAR-TAF:

METAR-TAF

机场 :

拉伯克, 得克萨斯州, 美国

纬度: 33-40-03N, 经度: 101-49-17W, 海拔: 1000米

当前天气观测

该预报发布于24分钟前的10:53 UTC
风速11节,风向南转南东
温度 23°C
湿度 73%
气压 1015 hPa
能見度: 16.1公里
少量云层高于14000英尺

METAR: KLBB 191053Z 15011KT 10SM FEW140 23/18 A2998 RMK AO2 SLP092 T02280178

时间: 06:17 (11:17 UTC)

预报

该预报发布于1小时和20分钟前的09:57 UTC
预报有效从19日的 10点(UTC)到 20日的 06点(UTC)
风速15节,风向南转南东
能見度: 10公里
天空无云
从 19日的 1300点(UTC)
风速15节,风向南转南东
能見度: 10公里
多云层高于2500英尺
从 19日的 1700点(UTC)
风速20节,风向东南,有时为30节阵风
能見度: 10公里
散云层高于8000英尺

TAF: KLBB 190957Z 1910/2006 15015KT P6SM SKC FM191300 15015KT P6SM BKN025 FM191700 13020G30KT P6SM SCT080

超过4000个机场的气象观测和天气预报(METAR&TAF报告)。

可查询的气象台以黄色和红色小点在地图上表示。

将鼠标移到小点上方,可查看气象台名称。

然后点击查看天气观测和预报。

如需切换地图:点击带黑十字的绿色按钮放大地图;点击带横线的绿色按钮缩小地图;或者点击绿色箭头查看邻近地区的地图。


METAR-TAF: